Time;durP1;ratioP1;P1;durP2;ratioP2;P2;SDS_P1;SDS_P2;PMS_P1;PMS_P2;Temp;Humidity;BMP_temperature;BMP_pressure;BME280_temperature;BME280_humidity;BME280_pressure;Samples;Min_cycle;Max_cycle;Signal;HPM_P1;HPM_P2
2021/07/24 10:44:41;;;;;;;13.43;9.80;;;;;;;26.79;100.00;95129.25;5087701;28;20353;-61
2021/07/24 10:47:09;;;;;;;13.00;9.23;;;;;;;26.37;100.00;95137.53;5058824;28;20044;-58
2021/07/24 10:49:35;;;;;;;12.40;8.60;;;;;;;26.54;98.46;95137.84;5062864;28;20506;-61
2021/07/24 10:52:10;;;;;;;12.73;8.95;;;;;;;26.97;99.97;95129.53;5069347;28;20055;-60
2021/07/24 10:55:02;;;;;;;11.25;7.93;;;;;;;26.97;92.42;95130.34;5065391;28;20057;-61
2021/07/24 10:57:46;;;;;;;11.35;8.13;;;;;;;26.76;99.59;95135.47;5062207;28;20033;-61
2021/07/24 11:00:17;;;;;;;10.65;7.68;;;;;;;26.67;94.13;95135.72;5058427;28;20027;-62
2021/07/24 11:02:46;;;;;;;12.85;8.00;;;;;;;26.81;87.90;95129.66;5055113;28;20033;-62
2021/07/24 11:05:25;;;;;;;9.68;7.47;;;;;;;26.91;91.02;95129.03;5055773;28;20453;-61
2021/07/24 11:07:57;;;;;;;10.02;8.13;;;;;;;26.57;94.70;95131.63;5060489;28;20471;-62
2021/07/24 11:10:26;;;;;;;10.45;7.43;;;;;;;26.50;94.58;95128.78;5056087;28;20060;-62
2021/07/24 11:12:52;;;;;;;10.73;7.80;;;;;;;26.29;93.48;95122.88;5069329;28;20494;-62
2021/07/24 11:15:43;;;;;;;11.32;7.82;;;;;;;26.35;89.67;95110.41;5063081;28;20021;-62
2021/07/24 11:18:23;;;;;;;14.05;8.77;;;;;;;26.41;93.44;95105.44;5057690;28;20048;-62
2021/07/24 11:20:49;;;;;;;12.68;8.25;;;;;;;26.72;95.18;95085.19;5061468;28;20059;-62
2021/07/24 11:23:15;;;;;;;11.18;7.95;;;;;;;26.73;93.08;95095.81;5052442;28;20029;-62
2021/07/24 11:25:41;;;;;;;10.48;7.22;;;;;;;26.76;87.19;95086.03;5056976;28;20021;-62
2021/07/24 11:28:08;;;;;;;10.85;7.95;;;;;;;26.89;86.51;95081.91;5062466;28;20029;-61
2021/07/24 11:30:36;;;;;;;14.40;8.27;;;;;;;26.57;90.57;95078.63;5064119;28;20025;-59
2021/07/24 11:33:03;;;;;;;13.02;8.45;;;;;;;26.50;97.11;95068.34;5055354;28;20214;-61
2021/07/24 11:35:47;;;;;;;13.30;8.88;;;;;;;26.41;94.78;95075.25;5060078;28;20037;-61
2021/07/24 11:38:21;;;;;;;13.65;8.23;;;;;;;26.57;93.03;95073.16;5083695;28;20033;-62
2021/07/24 11:41:04;;;;;;;15.00;9.82;;;;;;;26.64;98.96;95062.28;5053917;28;20081;-61
2021/07/24 11:43:29;;;;;;;14.30;8.98;;;;;;;26.88;99.48;95052.84;5079184;28;20052;-61
2021/07/24 11:46:06;;;;;;;9.70;7.88;;;;;;;26.61;88.68;95063.03;5068230;28;20024;-61
2021/07/24 11:48:32;;;;;;;10.32;7.78;;;;;;;26.57;92.56;95056.66;5062745;28;20163;-61
2021/07/24 11:51:05;;;;;;;11.32;8.73;;;;;;;26.40;92.94;95057.97;5064143;28;20115;-62
2021/07/24 11:53:37;;;;;;;9.98;8.27;;;;;;;26.39;99.41;95044.59;5063156;28;20024;-61
2021/07/24 11:56:03;;;;;;;9.38;7.50;;;;;;;26.22;93.23;95045.84;5046913;28;20029;-60
2021/07/24 11:58:32;;;;;;;10.55;7.93;;;;;;;26.11;96.04;95042.13;5048233;28;20026;-62
2021/07/24 12:01:03;;;;;;;10.07;7.82;;;;;;;26.20;94.38;95026.22;5037768;28;20025;-62
2021/07/24 12:03:31;;;;;;;9.80;7.68;;;;;;;26.34;91.86;95020.94;5052539;28;20423;-62
2021/07/24 12:06:20;;;;;;;12.80;8.07;;;;;;;26.54;92.27;95019.75;5041502;28;20072;-62
2021/07/24 12:08:46;;;;;;;13.27;8.02;;;;;;;26.64;93.46;95023.03;5047427;28;20029;-62
2021/07/24 12:11:33;;;;;;;10.60;7.63;;;;;;;26.99;91.74;95028.25;5050100;28;20091;-62
2021/07/24 12:14:07;;;;;;;13.18;8.13;;;;;;;27.00;89.53;95027.09;5052571;28;20049;-62
2021/07/24 12:17:03;;;;;;;10.80;7.82;;;;;;;26.86;87.97;95033.19;5047020;28;20036;-62
2021/07/24 12:19:43;;;;;;;11.60;8.52;;;;;;;26.73;86.85;95038.09;5048393;28;20499;-62
2021/07/24 12:22:22;;;;;;;8.98;7.45;;;;;;;26.79;90.81;95049.56;5042311;28;21902;-62
2021/07/24 12:24:49;;;;;;;10.95;8.00;;;;;;;26.87;100.00;95045.75;5045587;28;20385;-61
2021/07/24 12:27:20;;;;;;;10.52;7.85;;;;;;;26.91;88.64;95046.59;5043675;28;20017;-61
2021/07/24 12:29:56;;;;;;;9.43;7.68;;;;;;;26.99;91.98;95018.06;5040182;28;20025;-62
2021/07/24 12:32:37;;;;;;;12.02;8.35;;;;;;;27.17;86.43;95018.34;5044360;28;20013;-61
2021/07/24 12:35:21;;;;;;;9.65;7.57;;;;;;;27.54;82.22;95025.88;5050842;28;20167;-61
2021/07/24 12:37:47;;;;;;;9.70;7.50;;;;;;;27.63;83.03;95018.91;5041253;28;20400;-61
2021/07/24 12:40:17;;;;;;;9.32;7.45;;;;;;;27.65;80.19;95029.56;5044140;28;20028;-62
2021/07/24 12:42:43;;;;;;;11.02;8.07;;;;;;;27.48;87.33;95028.16;5044026;28;20040;-61
2021/07/24 12:45:33;;;;;;;11.30;7.90;;;;;;;27.37;78.72;95027.25;5045398;28;20150;-61
2021/07/24 12:48:18;;;;;;;9.93;7.53;;;;;;;27.26;73.40;95021.59;5045500;28;20077;-62
2021/07/24 12:51:10;;;;;;;12.55;7.95;;;;;;;27.03;89.97;95001.66;5045177;28;20065;-62
2021/07/24 12:53:36;;;;;;;13.98;8.55;;;;;;;27.09;91.73;94980.91;5052838;28;20488;-62
2021/07/24 12:56:01;;;;;;;16.23;8.32;;;;;;;27.31;84.78;94968.22;5043265;28;20116;-62
2021/07/24 12:58:27;;;;;;;11.05;8.10;;;;;;;27.67;87.33;94963.94;5047391;28;20057;-61
2021/07/24 13:00:52;;;;;;;11.80;8.23;;;;;;;27.57;81.22;94972.84;5043567;28;20601;-61
2021/07/24 13:03:20;;;;;;;11.88;8.60;;;;;;;27.75;86.31;94968.34;5043242;28;20379;-62
2021/07/24 13:05:49;;;;;;;8.73;7.78;;;;;;;27.65;93.33;94966.28;5042244;28;20024;-61
2021/07/24 13:08:14;;;;;;;10.18;7.85;;;;;;;27.73;88.72;94965.97;5041977;28;20024;-61
2021/07/24 13:10:42;;;;;;;9.55;7.63;;;;;;;27.81;93.91;94953.09;5049892;28;20052;-61
2021/07/24 13:13:07;;;;;;;8.68;7.63;;;;;;;27.78;94.83;94942.81;5041634;28;20033;-62
2021/07/24 13:15:35;;;;;;;9.60;7.68;;;;;;;27.74;88.75;94939.25;5048178;28;20087;-62
2021/07/24 13:18:00;;;;;;;8.98;7.43;;;;;;;27.41;85.25;94929.84;5053493;28;20020;-62
2021/07/24 13:20:26;;;;;;;12.02;8.23;;;;;;;27.19;83.74;94930.75;5046186;28;20483;-62
2021/07/24 13:22:51;;;;;;;11.43;8.15;;;;;;;26.93;85.03;94933.56;5040044;28;20069;-61
2021/07/24 13:30:29;;;;;;;10.90;7.63;;;;;;;26.44;97.27;94920.69;5052393;28;20032;-62
2021/07/24 13:32:58;;;;;;;11.05;7.97;;;;;;;26.15;98.24;94933.16;5050045;28;20063;-62
2021/07/24 13:35:23;;;;;;;9.93;8.20;;;;;;;25.66;100.00;94928.41;5049746;28;20029;-61
2021/07/24 13:37:48;;;;;;;10.63;8.10;;;;;;;25.41;100.00;94936.97;5050956;28;20036;-61
2021/07/24 13:40:14;;;;;;;10.90;7.65;;;;;;;25.11;100.00;94941.44;5050662;28;20078;-61
2021/07/24 13:42:42;;;;;;;12.70;7.43;;;;;;;24.75;100.00;94950.84;5049043;28;20076;-62
2021/07/24 13:45:08;;;;;;;12.75;8.43;;;;;;;24.53;100.00;94979.66;5051947;28;20017;-61
2021/07/24 13:47:34;;;;;;;10.85;7.85;;;;;;;24.33;100.00;94912.34;5040954;28;20033;-60
2021/07/24 13:50:06;;;;;;;28.33;12.35;;;;;;;23.90;100.00;94715.16;5036276;28;20037;-52
2021/07/24 13:52:31;;;;;;;23.00;10.88;;;;;;;22.73;100.00;94431.13;5051930;28;20043;-56
2021/07/24 13:54:59;;;;;;;17.05;10.07;;;;;;;21.59;100.00;94117.75;5052676;28;20120;-53
2021/07/24 13:57:26;;;;;;;15.90;8.90;;;;;;;21.12;100.00;93821.88;5058018;28;20060;-50
2021/07/24 13:59:52;;;;;;;15.10;9.32;;;;;;;20.87;100.00;93695.44;5050044;28;20025;-54
2021/07/24 14:02:22;;;;;;;16.60;9.38;;;;;;;20.50;100.00;93636.88;5052849;28;20028;-53
2021/07/24 14:04:50;;;;;;;16.30;9.52;;;;;;;20.44;100.00;93566.84;5052371;28;20029;-58
2021/07/24 14:07:20;;;;;;;17.02;9.45;;;;;;;20.37;100.00;93507.66;5052053;28;20037;-59
2021/07/24 14:09:56;;;;;;;14.00;9.55;;;;;;;20.22;100.00;93441.41;5044797;28;20029;-59
2021/07/24 14:12:21;;;;;;;15.88;9.05;;;;;;;19.94;100.00;93378.44;5037142;28;20064;-57
2021/07/24 14:14:46;;;;;;;11.40;8.25;;;;;;;19.79;100.00;93390.25;5034195;28;20115;-59
2021/07/24 14:17:14;;;;;;;15.50;9.35;;;;;;;19.81;100.00;93355.34;5043899;28;20030;-56
2021/07/24 14:19:43;;;;;;;13.32;8.43;;;;;;;19.73;100.00;93323.78;5037789;28;20037;-56
2021/07/24 14:22:08;;;;;;;12.80;8.25;;;;;;;19.50;100.00;93280.34;5051609;28;20115;-59
2021/07/24 14:24:36;;;;;;;14.20;8.30;;;;;;;19.35;100.00;93225.06;5039321;28;20110;-59
2021/07/24 14:27:02;;;;;;;17.33;8.93;;;;;;;19.22;100.00;93191.13;5038448;28;20021;-58
2021/07/24 14:29:29;;;;;;;15.27;8.65;;;;;;;19.22;100.00;93189.19;5044185;28;20036;-59
2021/07/24 14:31:55;;;;;;;13.32;7.80;;;;;;;19.00;100.00;93206.28;5036972;28;20119;-58
2021/07/24 14:34:21;;;;;;;15.50;9.55;;;;;;;18.91;100.00;93203.81;5049635;28;20146;-59
2021/07/24 14:36:47;;;;;;;11.93;8.85;;;;;;;18.80;100.00;93184.66;5042138;28;20032;-59
2021/07/24 14:39:16;;;;;;;18.23;9.40;;;;;;;18.72;100.00;93171.31;5048214;28;20029;-59
2021/07/24 14:41:47;;;;;;;12.60;8.45;;;;;;;18.79;100.00;93136.19;5044736;28;20021;-54
2021/07/24 14:44:13;;;;;;;14.95;8.88;;;;;;;18.78;100.00;93116.44;5042734;28;20049;-55
2021/07/24 14:46:38;;;;;;;15.35;9.23;;;;;;;18.80;100.00;93106.00;5045067;28;20399;-55
2021/07/24 14:49:06;;;;;;;12.50;8.27;;;;;;;18.73;100.00;93095.03;5050299;28;20020;-58
2021/07/24 14:51:31;;;;;;;13.32;9.13;;;;;;;18.66;100.00;93102.25;5051020;28;20029;-58
2021/07/24 14:53:57;;;;;;;12.38;9.02;;;;;;;18.57;100.00;93118.75;5045676;28;20495;-57
2021/07/24 14:56:22;;;;;;;13.60;9.93;;;;;;;18.48;100.00;93135.28;5040403;28;20037;-57
2021/07/24 14:58:50;;;;;;;13.02;8.70;;;;;;;18.35;100.00;93147.44;5046785;28;20040;-59
2021/07/24 15:01:18;;;;;;;13.70;8.55;;;;;;;18.27;100.00;93162.00;5046610;28;20059;-58
2021/07/24 15:03:47;;;;;;;15.38;9.63;;;;;;;18.21;100.00;93152.59;5061679;28;20017;-57
2021/07/24 15:06:16;;;;;;;15.48;9.18;;;;;;;18.16;100.00;93112.25;5049242;28;20036;-57
2021/07/24 15:08:41;;;;;;;15.13;9.18;;;;;;;18.20;100.00;93118.50;5034680;28;20033;-58
2021/07/24 15:11:12;;;;;;;14.15;8.68;;;;;;;18.21;100.00;93134.41;5035502;28;20032;-58
2021/07/24 15:13:40;;;;;;;15.85;10.13;;;;;;;18.27;100.00;93134.13;5045161;28;20017;-58
2021/07/24 15:16:11;;;;;;;15.95;9.43;;;;;;;18.23;100.00;93120.47;5046818;28;20060;-57
2021/07/24 15:18:40;;;;;;;12.23;9.00;;;;;;;18.15;100.00;93095.22;5043757;28;20148;-58
2021/07/24 15:21:34;;;;;;;12.65;9.88;;;;;;;18.07;100.00;93090.78;5043155;28;20222;-58
2021/07/24 15:24:08;;;;;;;15.48;9.38;;;;;;;18.03;100.00;93121.69;5041314;28;20052;-58
2021/07/24 15:26:36;;;;;;;16.85;9.00;;;;;;;18.01;100.00;93137.50;5042802;28;20086;-58
2021/07/24 15:29:02;;;;;;;14.73;8.68;;;;;;;17.96;100.00;93133.94;5037678;28;20041;-56
2021/07/24 15:31:33;;;;;;;13.25;9.23;;;;;;;17.98;100.00;93133.59;5045337;28;20606;-58
2021/07/24 15:33:59;;;;;;;15.25;9.23;;;;;;;17.94;100.00;93138.94;5039503;28;20021;-51
2021/07/24 15:36:24;;;;;;;13.75;9.48;;;;;;;17.92;100.00;93162.91;5042948;28;20078;-55
2021/07/24 15:38:55;;;;;;;14.63;9.25;;;;;;;17.94;100.00;93178.78;5050771;28;20013;-54
2021/07/24 15:41:20;;;;;;;20.35;9.43;;;;;;;17.92;100.00;93187.28;5053609;28;20078;-50
2021/07/24 15:43:46;;;;;;;14.55;8.90;;;;;;;17.89;100.00;93192.59;5060867;28;20570;-53
2021/07/24 15:46:16;;;;;;;14.60;9.88;;;;;;;17.87;100.00;93194.88;5050067;28;20017;-53
2021/07/24 15:48:41;;;;;;;14.98;9.43;;;;;;;17.69;100.00;93216.16;5039569;28;20021;-51
2021/07/24 15:51:08;;;;;;;12.60;9.05;;;;;;;17.62;100.00;93226.84;5064660;28;20345;-50
2021/07/24 15:53:33;;;;;;;20.70;9.15;;;;;;;17.60;100.00;93250.78;5051845;28;20025;-51
2021/07/24 15:56:10;;;;;;;14.95;9.02;;;;;;;17.58;100.00;93248.44;5064485;22;20055;-61
2021/07/24 15:58:40;;;;;;;13.45;8.75;;;;;;;17.60;100.00;93227.19;5030901;28;20094;-59
2021/07/24 16:01:12;;;;;;;17.15;9.18;;;;;;;17.56;100.00;93218.19;5036806;28;20364;-59
2021/07/24 16:03:39;;;;;;;19.50;9.35;;;;;;;17.55;100.00;93221.25;5044679;28;20364;-62
2021/07/24 16:06:06;;;;;;;13.52;8.82;;;;;;;17.55;100.00;93237.50;5031031;28;20056;-61
2021/07/24 16:08:35;;;;;;;14.48;9.63;;;;;;;17.48;100.00;93248.19;5054619;28;20024;-61
2021/07/24 16:11:01;;;;;;;14.40;8.95;;;;;;;17.43;100.00;93245.75;5017361;28;20327;-62
2021/07/24 16:13:26;;;;;;;16.30;9.55;;;;;;;17.41;100.00;93267.75;5035939;28;20020;-60
2021/07/24 16:15:52;;;;;;;16.02;9.63;;;;;;;17.46;100.00;93264.75;5046363;28;20021;-61
2021/07/24 16:18:17;;;;;;;13.98;8.98;;;;;;;17.52;100.00;93276.09;5050773;28;20480;-62
2021/07/24 16:20:43;;;;;;;14.52;9.00;;;;;;;17.57;100.00;93292.06;5047990;28;20021;-62
2021/07/24 16:23:08;;;;;;;17.13;11.98;;;;;;;17.58;100.00;93305.28;5033728;28;20391;-62
2021/07/24 16:25:36;;;;;;;30.10;17.35;;;;;;;17.58;100.00;93299.06;5035379;28;20124;-60
2021/07/24 16:28:02;;;;;;;16.88;10.50;;;;;;;17.58;100.00;93316.09;5044890;28;20027;-62
2021/07/24 16:30:27;;;;;;;14.73;9.98;;;;;;;17.55;100.00;93311.38;5024717;28;20384;-61
2021/07/24 16:32:53;;;;;;;14.85;9.43;;;;;;;17.50;100.00;93303.53;5045584;28;20563;-62
2021/07/24 16:35:23;;;;;;;17.02;9.48;;;;;;;17.52;100.00;93303.19;5043811;28;20025;-62
2021/07/24 16:37:49;;;;;;;18.92;9.15;;;;;;;17.53;100.00;93288.50;5046931;28;20601;-62
2021/07/24 16:40:14;;;;;;;13.13;9.10;;;;;;;17.56;100.00;93295.91;5028101;28;20537;-62
2021/07/24 16:42:39;;;;;;;14.15;9.07;;;;;;;17.61;100.00;93282.13;5049639;28;20021;-62
2021/07/24 16:45:09;;;;;;;16.50;8.82;;;;;;;17.62;100.00;93265.53;5029663;28;20029;-62
2021/07/24 16:47:35;;;;;;;14.40;8.68;;;;;;;17.62;100.00;93260.09;5051422;28;20031;-62
2021/07/24 16:50:00;;;;;;;17.85;9.60;;;;;;;17.79;100.00;93277.91;5032232;28;20525;-59
2021/07/24 16:52:29;;;;;;;14.30;10.43;;;;;;;17.88;100.00;93286.63;5052854;28;20037;-60
2021/07/24 16:55:00;;;;;;;14.90;9.48;;;;;;;18.00;100.00;93291.13;5048499;28;20541;-60
2021/07/24 16:57:31;;;;;;;15.65;9.05;;;;;;;17.99;100.00;93273.31;5045126;28;20491;-60
2021/07/24 16:59:57;;;;;;;16.77;9.65;;;;;;;18.12;100.00;93261.19;5035839;28;20035;-57
2021/07/24 17:02:27;;;;;;;21.35;9.75;;;;;;;18.34;100.00;93248.06;5053464;28;20025;-60
2021/07/24 17:04:52;;;;;;;18.45;8.77;;;;;;;18.51;100.00;93240.28;5031602;28;20056;-60
2021/07/24 17:07:21;;;;;;;11.90;7.72;;;;;;;18.48;100.00;93243.72;5033133;28;20452;-61
2021/07/24 17:09:46;;;;;;;10.30;7.53;;;;;;;18.43;100.00;93235.84;5048574;28;20384;-61
2021/07/24 17:12:11;;;;;;;11.93;7.28;;;;;;;18.51;100.00;93226.72;5045982;28;20025;-61
2021/07/24 17:14:37;;;;;;;11.45;6.40;;;;;;;18.60;100.00;93212.16;5052269;28;20543;-61
2021/07/24 17:17:04;;;;;;;12.32;6.30;;;;;;;18.43;100.00;93227.72;5033999;28;20032;-57
2021/07/24 17:19:32;;;;;;;15.98;6.20;;;;;;;18.29;100.00;93249.13;5050658;28;20119;-57
2021/07/24 17:21:58;;;;;;;7.43;5.72;;;;;;;18.17;100.00;93289.94;5037192;28;20507;-61
2021/07/24 17:24:29;;;;;;;10.43;6.25;;;;;;;18.14;100.00;93323.16;5048965;28;20021;-61
2021/07/24 17:27:04;;;;;;;11.18;6.03;;;;;;;18.16;100.00;93348.75;5034731;28;20033;-62
2021/07/24 17:29:31;;;;;;;9.73;6.03;;;;;;;18.28;100.00;93331.59;5048629;28;20471;-62
2021/07/24 17:32:00;;;;;;;10.60;6.68;;;;;;;18.24;100.00;93325.31;5041977;28;20029;-62
2021/07/24 17:34:31;;;;;;;11.32;5.90;;;;;;;18.23;100.00;93321.81;5052417;28;20079;-62
2021/07/24 17:36:59;;;;;;;8.98;5.65;;;;;;;18.15;100.00;93314.69;5052353;28;20035;-60
2021/07/24 17:39:26;;;;;;;10.98;6.75;;;;;;;18.09;100.00;93316.09;5045767;28;20392;-62
2021/07/24 17:41:57;;;;;;;7.60;5.80;;;;;;;18.04;100.00;93304.75;5052480;28;20079;-62
2021/07/24 17:44:26;;;;;;;9.23;6.05;;;;;;;17.99;100.00;93313.94;5047560;28;20437;-62
2021/07/24 17:46:51;;;;;;;12.60;6.53;;;;;;;18.02;100.00;93313.25;5051811;28;20056;-62
2021/07/24 17:49:19;;;;;;;12.13;6.15;;;;;;;17.98;100.00;93320.50;5044054;28;20553;-63
2021/07/24 17:51:44;;;;;;;8.40;5.88;;;;;;;17.90;100.00;93330.38;5043000;28;20039;-62
2021/07/24 17:54:11;;;;;;;10.10;5.72;;;;;;;17.79;100.00;93348.31;5041509;28;20475;-63
2021/07/24 17:56:36;;;;;;;8.02;5.53;;;;;;;17.76;100.00;93378.03;5046906;28;20585;-62
2021/07/24 17:59:02;;;;;;;9.88;6.25;;;;;;;17.74;100.00;93393.84;5046750;28;20058;-60
2021/07/24 18:01:29;;;;;;;11.23;5.97;;;;;;;17.70;100.00;93396.47;5033520;28;20098;-61
2021/07/24 18:03:55;;;;;;;7.93;5.85;;;;;;;17.72;100.00;93404.25;5031057;28;20052;-62
2021/07/24 18:06:23;;;;;;;8.25;5.70;;;;;;;17.66;100.00;93409.09;5023472;28;20046;-60
2021/07/24 18:08:52;;;;;;;10.73;6.10;;;;;;;17.55;100.00;93394.50;5040972;28;20090;-60
2021/07/24 18:11:20;;;;;;;10.68;5.90;;;;;;;17.47;100.00;93387.34;5043232;28;20529;-61
2021/07/24 18:13:46;;;;;;;10.60;6.55;;;;;;;17.38;100.00;93387.53;5029274;28;20098;-59
2021/07/24 18:16:13;;;;;;;10.75;6.32;;;;;;;17.30;100.00;93378.44;5045591;28;20483;-60
2021/07/24 18:18:39;;;;;;;8.77;6.15;;;;;;;17.22;100.00;93371.25;5028658;28;20426;-63
2021/07/24 18:21:13;;;;;;;11.85;6.55;;;;;;;17.10;100.00;93369.44;5047931;28;20028;-63
2021/07/24 18:23:39;;;;;;;8.40;5.97;;;;;;;17.03;100.00;93381.97;5047408;28;20389;-62
2021/07/24 18:26:05;;;;;;;8.85;5.75;;;;;;;16.92;100.00;93391.72;5045462;28;20044;-62
2021/07/24 18:28:34;;;;;;;9.20;6.78;;;;;;;16.87;100.00;93400.09;5042358;28;20059;-61
2021/07/24 18:31:04;;;;;;;13.98;6.30;;;;;;;16.83;100.00;93400.00;5036794;28;20032;-63
2021/07/24 18:33:29;;;;;;;10.43;6.32;;;;;;;16.78;100.00;93389.41;5027440;28;20033;-62
2021/07/24 18:35:55;;;;;;;9.75;6.03;;;;;;;16.70;100.00;93391.13;5026129;28;20241;-62
2021/07/24 18:38:23;;;;;;;9.85;6.65;;;;;;;16.65;100.00;93382.47;5049044;28;20021;-62
2021/07/24 18:40:58;;;;;;;9.65;6.47;;;;;;;16.62;100.00;93383.94;5044267;28;20487;-62
2021/07/24 18:43:24;;;;;;;10.60;6.32;;;;;;;16.56;100.00;93393.41;5050962;28;20430;-63
2021/07/24 18:45:52;;;;;;;9.80;6.03;;;;;;;16.54;100.00;93401.09;5031316;28;20255;-62
2021/07/24 18:48:18;;;;;;;17.05;7.40;;;;;;;16.49;100.00;93409.41;5032221;28;20487;-62
2021/07/24 18:50:43;;;;;;;10.90;6.57;;;;;;;16.45;100.00;93401.22;5051059;28;20163;-61
2021/07/24 18:53:09;;;;;;;9.48;6.13;;;;;;;16.39;100.00;93385.56;5031786;28;20029;-61
2021/07/24 18:55:35;;;;;;;13.65;6.60;;;;;;;16.32;100.00;93367.25;5044957;28;20130;-62
2021/07/24 18:58:01;;;;;;;12.88;6.35;;;;;;;16.29;100.00;93370.66;5047283;28;20044;-62
2021/07/24 19:00:29;;;;;;;8.82;6.25;;;;;;;16.22;100.00;93379.31;5047187;28;20029;-59
2021/07/24 19:02:54;;;;;;;9.15;5.88;;;;;;;16.17;100.00;93417.41;5029314;28;20021;-62
2021/07/24 19:05:21;;;;;;;9.82;6.15;;;;;;;16.14;100.00;93411.88;5047844;28;20040;-61
2021/07/24 19:07:47;;;;;;;10.40;6.20;;;;;;;16.16;100.00;93393.41;5034867;28;20040;-62
2021/07/24 19:10:12;;;;;;;8.95;6.00;;;;;;;16.12;100.00;93379.78;5032353;28;20025;-61
2021/07/24 19:12:38;;;;;;;10.38;5.80;;;;;;;16.10;100.00;93395.56;5050641;28;20028;-62
2021/07/24 19:15:07;;;;;;;12.75;7.55;;;;;;;16.08;100.00;93408.63;5042506;28;20031;-63
2021/07/24 19:17:33;;;;;;;8.32;6.00;;;;;;;16.09;100.00;93410.19;5052033;28;20033;-62
2021/07/24 19:19:59;;;;;;;9.38;6.05;;;;;;;16.09;100.00;93426.41;5051217;28;20033;-62
2021/07/24 19:22:28;;;;;;;10.43;6.10;;;;;;;16.12;100.00;93455.41;5036339;28;20040;-62
2021/07/24 19:25:00;;;;;;;12.93;7.18;;;;;;;16.23;100.00;93491.66;5035808;28;20028;-62
2021/07/24 19:27:25;;;;;;;11.85;6.45;;;;;;;16.30;100.00;93520.81;5054680;28;20418;-61
2021/07/24 19:29:55;;;;;;;14.38;6.43;;;;;;;16.31;100.00;93498.06;5051091;28;20035;-60
2021/07/24 19:32:20;;;;;;;10.75;6.90;;;;;;;16.24;100.00;93412.19;5051227;28;20386;-58
2021/07/24 19:34:48;;;;;;;14.32;6.88;;;;;;;16.23;100.00;93320.69;5054294;28;20115;-60
2021/07/24 19:37:13;;;;;;;14.70;7.40;;;;;;;16.21;100.00;93253.50;5054676;28;20021;-59
2021/07/24 19:39:39;;;;;;;11.60;7.38;;;;;;;16.29;100.00;93259.88;5045678;28;20040;-57
2021/07/24 19:42:05;;;;;;;13.35;7.03;;;;;;;16.31;100.00;93300.06;5053775;28;20020;-57
2021/07/24 19:44:32;;;;;;;13.88;8.05;;;;;;;16.33;100.00;93327.53;5033697;28;20064;-59
2021/07/24 19:46:58;;;;;;;11.57;8.02;;;;;;;16.31;100.00;93364.91;5053233;28;20029;-59
2021/07/24 19:49:24;;;;;;;13.93;7.55;;;;;;;16.26;100.00;93367.81;5050718;28;20405;-60
2021/07/24 19:51:50;;;;;;;18.38;7.88;;;;;;;16.22;100.00;93359.63;5044981;28;20025;-60
2021/07/24 19:54:18;;;;;;;15.13;7.78;;;;;;;16.17;100.00;93363.38;5053963;28;20021;-60
2021/07/24 19:56:43;;;;;;;16.50;7.80;;;;;;;16.10;100.00;93371.25;5053147;28;20526;-60
2021/07/24 19:59:14;;;;;;;11.52;7.55;;;;;;;16.04;100.00;93372.59;5050179;28;20029;-60
2021/07/24 20:01:39;;;;;;;12.02;7.60;;;;;;;15.98;100.00;93378.59;5049395;28;20029;-60
2021/07/24 20:04:13;;;;;;;11.00;7.20;;;;;;;15.91;100.00;93392.66;5053628;28;20375;-60
2021/07/24 20:06:43;;;;;;;12.40;7.05;;;;;;;15.86;100.00;93393.69;5053248;28;20112;-61
2021/07/24 20:09:11;;;;;;;11.65;7.68;;;;;;;15.79;100.00;93401.56;5051075;28;20399;-60
2021/07/24 20:11:36;;;;;;;12.20;7.18;;;;;;;15.75;100.00;93391.78;5048242;28;20029;-60
2021/07/24 20:14:04;;;;;;;14.15;7.20;;;;;;;15.70;100.00;93384.69;5035764;28;20024;-60
2021/07/24 20:16:29;;;;;;;12.32;8.35;;;;;;;15.59;100.00;93395.09;5052773;28;20060;-60
2021/07/24 20:18:55;;;;;;;12.10;7.53;;;;;;;15.52;100.00;93411.09;5045504;28;20028;-60
2021/07/24 20:21:20;;;;;;;13.07;7.70;;;;;;;15.52;100.00;93415.66;5053477;28;20024;-60
2021/07/24 20:23:50;;;;;;;12.40;7.28;;;;;;;15.53;100.00;93412.66;5033398;28;20025;-60
2021/07/24 20:26:25;;;;;;;11.25;8.10;;;;;;;15.49;100.00;93430.63;5053332;28;20056;-58
2021/07/24 20:28:50;;;;;;;12.30;7.57;;;;;;;15.47;100.00;93442.88;5034695;28;20067;-60
2021/07/24 20:31:16;;;;;;;16.90;8.02;;;;;;;15.47;100.00;93432.88;5046511;28;20108;-60
2021/07/24 20:33:41;;;;;;;15.30;7.70;;;;;;;15.45;100.00;93432.44;5045589;28;20493;-59
2021/07/24 20:36:13;;;;;;;12.63;7.70;;;;;;;15.42;100.00;93441.19;5047424;28;20381;-60
2021/07/24 20:38:41;;;;;;;10.15;7.18;;;;;;;15.37;100.00;93454.88;5025763;28;20025;-60
2021/07/24 20:41:07;;;;;;;13.52;7.93;;;;;;;15.30;100.00;93466.25;5048747;28;20373;-60
2021/07/24 20:43:34;;;;;;;12.43;8.25;;;;;;;15.26;100.00;93459.13;5045993;28;20032;-60
2021/07/24 20:46:05;;;;;;;11.63;7.70;;;;;;;15.27;100.00;93448.00;5034801;28;20491;-61
2021/07/24 20:48:31;;;;;;;12.23;7.50;;;;;;;15.31;100.00;93434.66;5052477;28;20112;-60
2021/07/24 20:50:56;;;;;;;12.05;7.10;;;;;;;15.34;100.00;93432.06;5045862;28;20100;-60
2021/07/24 20:53:22;;;;;;;13.73;8.10;;;;;;;15.38;100.00;93432.19;5051539;28;20021;-56
2021/07/24 20:56:01;;;;;;;16.33;7.85;;;;;;;15.33;100.00;93418.91;5033923;28;20041;-60
2021/07/24 20:58:27;;;;;;;21.95;8.40;;;;;;;15.30;100.00;93406.09;5045687;28;20045;-60
2021/07/24 21:00:53;;;;;;;18.05;8.73;;;;;;;15.30;100.00;93420.38;5047893;28;20098;-60
2021/07/24 21:03:18;;;;;;;15.98;8.48;;;;;;;15.32;100.00;93425.44;5051746;28;20025;-59
2021/07/24 21:05:45;;;;;;;23.80;8.00;;;;;;;15.36;100.00;93431.72;5048263;28;20025;-55
2021/07/24 21:08:10;;;;;;;23.77;8.77;;;;;;;15.37;100.00;93434.09;5052641;28;20029;-60
2021/07/24 21:10:35;;;;;;;18.58;8.10;;;;;;;15.36;100.00;93432.50;5045753;28;20027;-60
2021/07/24 21:13:01;;;;;;;16.77;8.52;;;;;;;15.35;100.00;93443.66;5043736;28;20013;-60
2021/07/24 21:15:26;;;;;;;17.02;8.20;;;;;;;15.36;100.00;93442.53;5052476;28;20059;-60
2021/07/24 21:17:56;;;;;;;18.02;8.13;;;;;;;15.37;100.00;93449.50;5043713;28;20430;-60
2021/07/24 21:20:40;;;;;;;20.02;8.88;;;;;;;15.35;100.00;93459.84;5029989;28;20071;-60
2021/07/24 21:23:06;;;;;;;15.57;9.07;;;;;;;15.37;100.00;93462.97;5043674;28;20025;-60
2021/07/24 21:25:31;;;;;;;16.52;8.85;;;;;;;15.35;100.00;93459.84;5046445;28;20044;-60
2021/07/24 21:27:57;;;;;;;13.57;7.72;;;;;;;15.36;100.00;93456.78;5048484;28;20039;-60
2021/07/24 21:30:34;;;;;;;21.85;8.90;;;;;;;15.45;100.00;93426.25;5047808;28;20029;-59
2021/07/24 21:32:59;;;;;;;18.80;8.88;;;;;;;15.49;100.00;93406.34;5041400;28;20082;-58
2021/07/24 21:35:31;;;;;;;25.80;8.82;;;;;;;15.53;100.00;93411.88;5052484;28;20480;-56
2021/07/24 21:37:57;;;;;;;14.30;8.45;;;;;;;15.52;100.00;93423.75;5034529;28;20486;-57
2021/07/24 21:40:39;;;;;;;21.20;8.48;;;;;;;15.54;100.00;93403.44;5034698;28;20076;-54
2021/07/24 21:43:09;;;;;;;22.40;8.65;;;;;;;15.54;100.00;93400.72;5041688;28;20036;-58
2021/07/24 21:45:37;;;;;;;23.17;9.40;;;;;;;15.53;100.00;93412.66;5052209;28;20032;-55
2021/07/24 21:48:04;;;;;;;23.33;9.02;;;;;;;15.53;100.00;93418.06;5050325;28;20033;-53
2021/07/24 21:50:42;;;;;;;22.25;8.70;;;;;;;15.51;100.00;93428.38;5033925;28;20037;-57
2021/07/24 21:53:12;;;;;;;16.80;8.38;;;;;;;15.52;100.00;93431.84;5049007;28;20032;-58
2021/07/24 21:55:41;;;;;;;21.98;9.13;;;;;;;15.55;100.00;93423.09;5065502;22;20056;-50
2021/07/24 21:58:06;;;;;;;25.58;8.43;;;;;;;15.54;100.00;93422.31;5084047;28;20505;-55
2021/07/24 22:00:34;;;;;;;16.27;8.82;;;;;;;15.51;100.00;93428.38;5064357;28;20028;-54
2021/07/24 22:03:15;;;;;;;22.08;8.88;;;;;;;15.50;100.00;93409.81;5077623;28;20029;-54
2021/07/24 22:05:42;;;;;;;23.17;8.40;;;;;;;15.51;100.00;93404.09;5065403;28;20414;-53
2021/07/24 22:08:09;;;;;;;17.77;8.05;;;;;;;15.49;100.00;93414.44;5067480;28;20040;-54
2021/07/24 22:10:35;;;;;;;17.25;8.55;;;;;;;15.52;100.00;93408.38;5066573;28;20396;-50
2021/07/24 22:13:03;;;;;;;19.10;8.70;;;;;;;15.53;100.00;93406.47;5074709;28;20020;-55
2021/07/24 22:15:39;;;;;;;28.65;8.70;;;;;;;15.55;100.00;93406.91;5075248;28;20042;-52